sensor_id;sensor_type;location;lat;lon;timestamp;P1;durP1;ratioP1;P2;durP2;ratioP2
15526;SDS011;7865;50.918;4.510;2024-02-14T00:03:33;5.90;;;2.90;;
15526;SDS011;7865;50.918;4.510;2024-02-14T00:08:34;4.00;;;3.17;;
15526;SDS011;7865;50.918;4.510;2024-02-14T00:13:35;7.23;;;3.17;;
15526;SDS011;7865;50.918;4.510;2024-02-14T00:18:36;5.67;;;3.50;;
15526;SDS011;7865;50.918;4.510;2024-02-14T00:23:38;5.37;;;3.43;;
15526;SDS011;7865;50.918;4.510;2024-02-14T00:28:39;4.97;;;2.90;;
15526;SDS011;7865;50.918;4.510;2024-02-14T00:33:40;5.70;;;3.43;;
15526;SDS011;7865;50.918;4.510;2024-02-14T00:38:42;7.53;;;3.70;;
15526;SDS011;7865;50.918;4.510;2024-02-14T00:43:43;5.00;;;2.70;;
15526;SDS011;7865;50.918;4.510;2024-02-14T00:48:44;5.03;;;3.33;;
15526;SDS011;7865;50.918;4.510;2024-02-14T00:53:46;4.27;;;3.50;;
15526;SDS011;7865;50.918;4.510;2024-02-14T00:58:47;5.77;;;3.17;;
15526;SDS011;7865;50.918;4.510;2024-02-14T01:03:48;4.67;;;3.13;;
15526;SDS011;7865;50.918;4.510;2024-02-14T01:08:49;6.20;;;3.30;;
15526;SDS011;7865;50.918;4.510;2024-02-14T01:13:51;4.33;;;3.33;;
15526;SDS011;7865;50.918;4.510;2024-02-14T01:18:52;5.40;;;3.27;;
15526;SDS011;7865;50.918;4.510;2024-02-14T01:23:54;10.90;;;4.13;;
15526;SDS011;7865;50.918;4.510;2024-02-14T01:28:55;6.10;;;3.70;;
15526;SDS011;7865;50.918;4.510;2024-02-14T01:33:56;8.63;;;4.10;;
15526;SDS011;7865;50.918;4.510;2024-02-14T01:38:58;6.70;;;4.17;;
15526;SDS011;7865;50.918;4.510;2024-02-14T01:43:59;9.47;;;4.53;;
15526;SDS011;7865;50.918;4.510;2024-02-14T01:49:01;4.30;;;3.57;;
15526;SDS011;7865;50.918;4.510;2024-02-14T01:54:04;7.07;;;4.30;;
15526;SDS011;7865;50.918;4.510;2024-02-14T01:59:05;6.00;;;4.00;;
15526;SDS011;7865;50.918;4.510;2024-02-14T02:04:08;6.63;;;4.57;;
15526;SDS011;7865;50.918;4.510;2024-02-14T02:09:10;4.07;;;3.43;;
15526;SDS011;7865;50.918;4.510;2024-02-14T02:14:11;7.30;;;4.47;;
15526;SDS011;7865;50.918;4.510;2024-02-14T02:19:33;6.13;;;4.17;;
15526;SDS011;7865;50.918;4.510;2024-02-14T02:24:54;6.37;;;4.67;;
15526;SDS011;7865;50.918;4.510;2024-02-14T02:29:56;7.43;;;5.20;;
15526;SDS011;7865;50.918;4.510;2024-02-14T02:34:57;8.23;;;4.70;;
15526;SDS011;7865;50.918;4.510;2024-02-14T02:39:58;9.53;;;4.67;;
15526;SDS011;7865;50.918;4.510;2024-02-14T02:45:35;7.00;;;4.97;;
15526;SDS011;7865;50.918;4.510;2024-02-14T02:50:56;9.63;;;5.13;;
15526;SDS011;7865;50.918;4.510;2024-02-14T02:56:16;7.43;;;5.17;;
15526;SDS011;7865;50.918;4.510;2024-02-14T03:01:17;9.93;;;5.07;;
15526;SDS011;7865;50.918;4.510;2024-02-14T03:06:38;9.40;;;5.63;;
15526;SDS011;7865;50.918;4.510;2024-02-14T03:11:54;8.20;;;4.67;;
15526;SDS011;7865;50.918;4.510;2024-02-14T03:17:17;12.80;;;6.30;;
15526;SDS011;7865;50.918;4.510;2024-02-14T03:22:18;10.43;;;6.07;;
15526;SDS011;7865;50.918;4.510;2024-02-14T03:27:19;12.50;;;6.43;;
15526;SDS011;7865;50.918;4.510;2024-02-14T03:32:24;9.10;;;5.93;;
15526;SDS011;7865;50.918;4.510;2024-02-14T03:37:27;9.83;;;6.30;;
15526;SDS011;7865;50.918;4.510;2024-02-14T03:42:28;8.30;;;6.00;;
15526;SDS011;7865;50.918;4.510;2024-02-14T03:47:29;7.47;;;6.13;;
15526;SDS011;7865;50.918;4.510;2024-02-14T03:52:32;11.23;;;6.60;;
15526;SDS011;7865;50.918;4.510;2024-02-14T03:57:33;13.80;;;7.23;;
15526;SDS011;7865;50.918;4.510;2024-02-14T04:02:39;9.17;;;6.53;;
15526;SDS011;7865;50.918;4.510;2024-02-14T04:07:41;12.00;;;7.00;;
15526;SDS011;7865;50.918;4.510;2024-02-14T04:12:45;10.23;;;7.40;;
15526;SDS011;7865;50.918;4.510;2024-02-14T04:17:46;10.07;;;6.87;;
15526;SDS011;7865;50.918;4.510;2024-02-14T04:22:48;11.60;;;6.37;;
15526;SDS011;7865;50.918;4.510;2024-02-14T04:27:49;10.97;;;7.23;;
15526;SDS011;7865;50.918;4.510;2024-02-14T04:32:50;9.47;;;6.80;;
15526;SDS011;7865;50.918;4.510;2024-02-14T04:37:52;11.03;;;6.90;;
15526;SDS011;7865;50.918;4.510;2024-02-14T04:42:53;10.97;;;6.30;;
15526;SDS011;7865;50.918;4.510;2024-02-14T04:47:55;9.97;;;7.00;;
15526;SDS011;7865;50.918;4.510;2024-02-14T04:52:56;12.47;;;8.17;;
15526;SDS011;7865;50.918;4.510;2024-02-14T04:57:57;11.00;;;7.87;;
15526;SDS011;7865;50.918;4.510;2024-02-14T05:02:59;10.63;;;7.23;;
15526;SDS011;7865;50.918;4.510;2024-02-14T05:08:01;13.00;;;8.17;;
15526;SDS011;7865;50.918;4.510;2024-02-14T05:13:05;11.53;;;8.43;;
15526;SDS011;7865;50.918;4.510;2024-02-14T05:18:07;16.57;;;7.67;;
15526;SDS011;7865;50.918;4.510;2024-02-14T05:23:08;11.73;;;9.10;;
15526;SDS011;7865;50.918;4.510;2024-02-14T05:28:11;12.03;;;7.53;;
15526;SDS011;7865;50.918;4.510;2024-02-14T05:33:14;11.87;;;9.10;;
15526;SDS011;7865;50.918;4.510;2024-02-14T05:38:16;12.47;;;8.97;;
15526;SDS011;7865;50.918;4.510;2024-02-14T05:43:20;12.67;;;8.40;;
15526;SDS011;7865;50.918;4.510;2024-02-14T05:48:22;12.10;;;8.10;;
15526;SDS011;7865;50.918;4.510;2024-02-14T05:53:23;12.60;;;7.97;;
15526;SDS011;7865;50.918;4.510;2024-02-14T05:58:24;13.13;;;8.27;;
15526;SDS011;7865;50.918;4.510;2024-02-14T06:03:28;12.10;;;7.03;;
15526;SDS011;7865;50.918;4.510;2024-02-14T06:08:29;10.80;;;8.27;;
15526;SDS011;7865;50.918;4.510;2024-02-14T06:13:30;17.87;;;8.93;;
15526;SDS011;7865;50.918;4.510;2024-02-14T06:18:31;16.07;;;8.17;;
15526;SDS011;7865;50.918;4.510;2024-02-14T06:23:33;13.77;;;8.63;;
15526;SDS011;7865;50.918;4.510;2024-02-14T06:28:34;11.73;;;8.10;;
15526;SDS011;7865;50.918;4.510;2024-02-14T06:33:36;12.37;;;7.63;;
15526;SDS011;7865;50.918;4.510;2024-02-14T06:38:37;13.50;;;9.10;;
15526;SDS011;7865;50.918;4.510;2024-02-14T06:43:38;14.73;;;8.90;;
15526;SDS011;7865;50.918;4.510;2024-02-14T06:48:40;11.00;;;8.50;;
15526;SDS011;7865;50.918;4.510;2024-02-14T06:53:41;17.77;;;8.63;;
15526;SDS011;7865;50.918;4.510;2024-02-14T06:58:42;13.93;;;8.07;;
15526;SDS011;7865;50.918;4.510;2024-02-14T07:03:43;13.60;;;8.30;;
15526;SDS011;7865;50.918;4.510;2024-02-14T07:08:47;12.07;;;7.97;;
15526;SDS011;7865;50.918;4.510;2024-02-14T07:13:48;15.33;;;8.47;;
15526;SDS011;7865;50.918;4.510;2024-02-14T07:18:49;13.93;;;8.57;;
15526;SDS011;7865;50.918;4.510;2024-02-14T07:23:51;19.10;;;9.47;;
15526;SDS011;7865;50.918;4.510;2024-02-14T07:28:54;15.43;;;9.37;;
15526;SDS011;7865;50.918;4.510;2024-02-14T07:33:55;15.50;;;8.53;;
15526;SDS011;7865;50.918;4.510;2024-02-14T07:38:57;18.47;;;10.37;;
15526;SDS011;7865;50.918;4.510;2024-02-14T07:44:01;14.60;;;9.37;;
15526;SDS011;7865;50.918;4.510;2024-02-14T07:49:03;87.47;;;17.97;;
15526;SDS011;7865;50.918;4.510;2024-02-14T07:54:05;17.90;;;8.73;;
15526;SDS011;7865;50.918;4.510;2024-02-14T07:59:06;20.27;;;10.07;;
15526;SDS011;7865;50.918;4.510;2024-02-14T08:04:07;13.03;;;9.20;;
15526;SDS011;7865;50.918;4.510;2024-02-14T08:09:09;15.00;;;8.47;;
15526;SDS011;7865;50.918;4.510;2024-02-14T08:14:10;11.93;;;8.27;;
15526;SDS011;7865;50.918;4.510;2024-02-14T08:19:13;14.33;;;8.50;;
15526;SDS011;7865;50.918;4.510;2024-02-14T08:24:15;14.83;;;8.93;;
15526;SDS011;7865;50.918;4.510;2024-02-14T08:29:16;15.13;;;8.50;;
15526;SDS011;7865;50.918;4.510;2024-02-14T08:34:18;17.40;;;8.27;;
15526;SDS011;7865;50.918;4.510;2024-02-14T08:39:20;14.20;;;8.70;;
15526;SDS011;7865;50.918;4.510;2024-02-14T08:44:24;14.00;;;7.17;;
15526;SDS011;7865;50.918;4.510;2024-02-14T08:49:25;12.43;;;8.03;;
15526;SDS011;7865;50.918;4.510;2024-02-14T08:54:27;14.40;;;8.47;;
15526;SDS011;7865;50.918;4.510;2024-02-14T08:59:29;12.73;;;8.03;;
15526;SDS011;7865;50.918;4.510;2024-02-14T09:04:30;12.77;;;9.97;;
15526;SDS011;7865;50.918;4.510;2024-02-14T09:09:32;15.30;;;10.20;;
15526;SDS011;7865;50.918;4.510;2024-02-14T09:14:33;17.30;;;10.70;;
15526;SDS011;7865;50.918;4.510;2024-02-14T09:19:34;18.60;;;12.20;;
15526;SDS011;7865;50.918;4.510;2024-02-14T09:24:36;14.53;;;11.10;;
15526;SDS011;7865;50.918;4.510;2024-02-14T09:29:37;13.40;;;9.73;;
15526;SDS011;7865;50.918;4.510;2024-02-14T09:34:39;16.20;;;9.97;;
15526;SDS011;7865;50.918;4.510;2024-02-14T09:39:40;14.47;;;8.77;;
15526;SDS011;7865;50.918;4.510;2024-02-14T09:44:44;12.70;;;9.27;;
15526;SDS011;7865;50.918;4.510;2024-02-14T09:49:47;11.90;;;8.93;;
15526;SDS011;7865;50.918;4.510;2024-02-14T09:54:51;19.00;;;8.87;;
15526;SDS011;7865;50.918;4.510;2024-02-14T09:59:54;11.23;;;8.10;;
15526;SDS011;7865;50.918;4.510;2024-02-14T10:04:57;10.10;;;6.73;;
15526;SDS011;7865;50.918;4.510;2024-02-14T10:10:05;9.27;;;6.37;;
15526;SDS011;7865;50.918;4.510;2024-02-14T10:15:08;9.33;;;7.20;;
15526;SDS011;7865;50.918;4.510;2024-02-14T10:20:09;7.73;;;5.57;;
15526;SDS011;7865;50.918;4.510;2024-02-14T10:25:11;7.17;;;5.70;;
15526;SDS011;7865;50.918;4.510;2024-02-14T10:30:14;7.00;;;6.10;;
15526;SDS011;7865;50.918;4.510;2024-02-14T10:35:15;5.30;;;4.80;;
15526;SDS011;7865;50.918;4.510;2024-02-14T10:40:17;5.60;;;4.37;;
15526;SDS011;7865;50.918;4.510;2024-02-14T10:45:21;27.03;;;7.87;;
15526;SDS011;7865;50.918;4.510;2024-02-14T10:50:24;3.63;;;2.97;;
15526;SDS011;7865;50.918;4.510;2024-02-14T10:55:28;5.90;;;2.60;;
15526;SDS011;7865;50.918;4.510;2024-02-14T11:00:31;4.53;;;3.47;;
15526;SDS011;7865;50.918;4.510;2024-02-14T11:05:42;6.35;;;2.80;;
15526;SDS011;7865;50.918;4.510;2024-02-14T11:10:52;2.85;;;2.63;;
15526;SDS011;7865;50.918;4.510;2024-02-14T11:15:56;4.10;;;3.20;;
15526;SDS011;7865;50.918;4.510;2024-02-14T11:21:03;3.10;;;2.67;;
15526;SDS011;7865;50.918;4.510;2024-02-14T11:26:06;3.92;;;2.78;;
15526;SDS011;7865;50.918;4.510;2024-02-14T11:31:09;4.00;;;2.60;;
15526;SDS011;7865;50.918;4.510;2024-02-14T11:36:11;4.27;;;2.63;;
15526;SDS011;7865;50.918;4.510;2024-02-14T11:41:15;4.40;;;2.60;;
15526;SDS011;7865;50.918;4.510;2024-02-14T11:46:16;6.37;;;3.07;;
15526;SDS011;7865;50.918;4.510;2024-02-14T11:51:17;5.55;;;3.30;;
15526;SDS011;7865;50.918;4.510;2024-02-14T11:56:20;4.73;;;3.37;;
15526;SDS011;7865;50.918;4.510;2024-02-14T12:01:23;4.82;;;3.78;;
15526;SDS011;7865;50.918;4.510;2024-02-14T12:06:24;5.40;;;3.37;;
15526;SDS011;7865;50.918;4.510;2024-02-14T12:11:25;5.83;;;3.97;;
15526;SDS011;7865;50.918;4.510;2024-02-14T12:16:27;5.07;;;3.77;;
15526;SDS011;7865;50.918;4.510;2024-02-14T12:21:29;8.50;;;4.40;;
15526;SDS011;7865;50.918;4.510;2024-02-14T12:26:38;5.88;;;3.88;;
15526;SDS011;7865;50.918;4.510;2024-02-14T12:31:40;8.57;;;4.70;;
15526;SDS011;7865;50.918;4.510;2024-02-14T12:36:41;13.18;;;4.53;;
15526;SDS011;7865;50.918;4.510;2024-02-14T12:41:42;9.97;;;4.67;;
15526;SDS011;7865;50.918;4.510;2024-02-14T12:46:44;8.60;;;4.93;;
15526;SDS011;7865;50.918;4.510;2024-02-14T12:51:45;12.18;;;5.35;;
15526;SDS011;7865;50.918;4.510;2024-02-14T12:56:46;10.52;;;4.80;;
15526;SDS011;7865;50.918;4.510;2024-02-14T13:01:48;8.55;;;5.22;;
15526;SDS011;7865;50.918;4.510;2024-02-14T13:06:49;7.22;;;4.63;;
15526;SDS011;7865;50.918;4.510;2024-02-14T13:11:51;9.80;;;5.00;;
15526;SDS011;7865;50.918;4.510;2024-02-14T13:16:53;7.47;;;4.70;;
15526;SDS011;7865;50.918;4.510;2024-02-14T13:21:54;10.25;;;5.03;;
15526;SDS011;7865;50.918;4.510;2024-02-14T13:26:56;8.40;;;4.40;;
15526;SDS011;7865;50.918;4.510;2024-02-14T13:31:58;6.15;;;3.80;;
15526;SDS011;7865;50.918;4.510;2024-02-14T13:37:01;6.30;;;3.67;;
15526;SDS011;7865;50.918;4.510;2024-02-14T13:42:03;8.20;;;3.85;;
15526;SDS011;7865;50.918;4.510;2024-02-14T13:47:04;4.97;;;2.83;;
15526;SDS011;7865;50.918;4.510;2024-02-14T13:52:06;7.47;;;3.70;;
15526;SDS011;7865;50.918;4.510;2024-02-14T13:57:07;4.53;;;3.25;;
15526;SDS011;7865;50.918;4.510;2024-02-14T14:02:08;4.47;;;3.33;;
15526;SDS011;7865;50.918;4.510;2024-02-14T14:07:10;5.72;;;2.90;;
15526;SDS011;7865;50.918;4.510;2024-02-14T14:12:12;4.45;;;2.90;;
15526;SDS011;7865;50.918;4.510;2024-02-14T14:17:13;6.23;;;2.93;;
15526;SDS011;7865;50.918;4.510;2024-02-14T14:22:14;4.75;;;3.25;;
15526;SDS011;7865;50.918;4.510;2024-02-14T14:27:16;65.15;;;10.43;;
15526;SDS011;7865;50.918;4.510;2024-02-14T14:32:19;5.07;;;2.58;;
15526;SDS011;7865;50.918;4.510;2024-02-14T14:37:21;4.72;;;3.17;;
15526;SDS011;7865;50.918;4.510;2024-02-14T14:42:23;5.15;;;2.60;;
15526;SDS011;7865;50.918;4.510;2024-02-14T14:47:24;4.13;;;2.97;;
15526;SDS011;7865;50.918;4.510;2024-02-14T14:52:25;5.10;;;2.90;;
15526;SDS011;7865;50.918;4.510;2024-02-14T14:57:27;8.43;;;4.15;;
15526;SDS011;7865;50.918;4.510;2024-02-14T15:02:28;4.68;;;3.10;;
15526;SDS011;7865;50.918;4.510;2024-02-14T15:07:29;11.50;;;3.70;;
15526;SDS011;7865;50.918;4.510;2024-02-14T15:12:30;7.47;;;3.95;;
15526;SDS011;7865;50.918;4.510;2024-02-14T15:17:32;4.00;;;2.58;;
15526;SDS011;7865;50.918;4.510;2024-02-14T15:22:33;25.67;;;5.53;;
15526;SDS011;7865;50.918;4.510;2024-02-14T15:27:34;81.85;;;11.77;;
15526;SDS011;7865;50.918;4.510;2024-02-14T15:32:41;5.47;;;2.85;;
15526;SDS011;7865;50.918;4.510;2024-02-14T15:38:01;6.53;;;3.40;;
15526;SDS011;7865;50.918;4.510;2024-02-14T15:43:02;4.03;;;2.40;;
15526;SDS011;7865;50.918;4.510;2024-02-14T15:48:04;4.78;;;2.95;;
15526;SDS011;7865;50.918;4.510;2024-02-14T15:53:06;7.13;;;3.22;;
15526;SDS011;7865;50.918;4.510;2024-02-14T15:58:07;81.53;;;13.85;;
15526;SDS011;7865;50.918;4.510;2024-02-14T16:03:09;14.13;;;3.47;;
15526;SDS011;7865;50.918;4.510;2024-02-14T16:08:15;54.40;;;8.82;;
15526;SDS011;7865;50.918;4.510;2024-02-14T16:13:17;7.90;;;3.50;;
15526;SDS011;7865;50.918;4.510;2024-02-14T16:18:18;5.45;;;3.35;;
15526;SDS011;7865;50.918;4.510;2024-02-14T16:23:19;8.35;;;3.00;;
15526;SDS011;7865;50.918;4.510;2024-02-14T16:28:20;6.45;;;2.55;;
15526;SDS011;7865;50.918;4.510;2024-02-14T16:33:22;10.40;;;3.30;;
15526;SDS011;7865;50.918;4.510;2024-02-14T16:38:24;6.67;;;3.37;;
15526;SDS011;7865;50.918;4.510;2024-02-14T16:43:25;4.65;;;3.08;;
15526;SDS011;7865;50.918;4.510;2024-02-14T16:48:27;4.65;;;2.50;;
15526;SDS011;7865;50.918;4.510;2024-02-14T16:53:28;3.97;;;2.78;;
15526;SDS011;7865;50.918;4.510;2024-02-14T16:58:29;6.30;;;2.28;;
15526;SDS011;7865;50.918;4.510;2024-02-14T17:03:30;5.35;;;2.40;;
15526;SDS011;7865;50.918;4.510;2024-02-14T17:08:32;7.63;;;3.05;;
15526;SDS011;7865;50.918;4.510;2024-02-14T17:13:33;6.80;;;3.40;;
15526;SDS011;7865;50.918;4.510;2024-02-14T17:18:34;8.32;;;2.97;;
15526;SDS011;7865;50.918;4.510;2024-02-14T17:23:35;11.05;;;3.70;;
15526;SDS011;7865;50.918;4.510;2024-02-14T17:28:38;9.70;;;4.15;;
15526;SDS011;7865;50.918;4.510;2024-02-14T17:33:39;10.15;;;3.67;;
15526;SDS011;7865;50.918;4.510;2024-02-14T17:38:40;8.20;;;3.40;;
15526;SDS011;7865;50.918;4.510;2024-02-14T17:43:41;10.40;;;3.50;;
15526;SDS011;7865;50.918;4.510;2024-02-14T17:48:42;8.13;;;3.35;;
15526;SDS011;7865;50.918;4.510;2024-02-14T17:53:44;10.05;;;4.10;;
15526;SDS011;7865;50.918;4.510;2024-02-14T17:58:45;10.20;;;4.10;;
15526;SDS011;7865;50.918;4.510;2024-02-14T18:03:46;7.15;;;3.40;;
15526;SDS011;7865;50.918;4.510;2024-02-14T18:08:47;9.13;;;3.80;;
15526;SDS011;7865;50.918;4.510;2024-02-14T18:13:49;8.45;;;3.55;;
15526;SDS011;7865;50.918;4.510;2024-02-14T18:18:53;9.55;;;3.95;;
15526;SDS011;7865;50.918;4.510;2024-02-14T18:23:54;14.20;;;4.13;;
15526;SDS011;7865;50.918;4.510;2024-02-14T18:28:56;12.40;;;4.25;;
15526;SDS011;7865;50.918;4.510;2024-02-14T18:33:57;11.00;;;4.97;;
15526;SDS011;7865;50.918;4.510;2024-02-14T18:38:58;11.73;;;5.13;;
15526;SDS011;7865;50.918;4.510;2024-02-14T18:44:00;13.07;;;5.00;;
15526;SDS011;7865;50.918;4.510;2024-02-14T18:49:04;14.02;;;5.60;;
15526;SDS011;7865;50.918;4.510;2024-02-14T18:54:06;14.60;;;5.70;;
15526;SDS011;7865;50.918;4.510;2024-02-14T18:59:10;12.48;;;5.13;;
15526;SDS011;7865;50.918;4.510;2024-02-14T19:04:12;14.38;;;5.78;;
15526;SDS011;7865;50.918;4.510;2024-02-14T19:09:13;14.00;;;5.25;;
15526;SDS011;7865;50.918;4.510;2024-02-14T19:14:15;10.50;;;5.35;;
15526;SDS011;7865;50.918;4.510;2024-02-14T19:19:17;13.50;;;5.43;;
15526;SDS011;7865;50.918;4.510;2024-02-14T19:24:18;13.50;;;5.72;;
15526;SDS011;7865;50.918;4.510;2024-02-14T19:29:19;13.27;;;5.28;;
15526;SDS011;7865;50.918;4.510;2024-02-14T19:34:21;13.18;;;5.35;;
15526;SDS011;7865;50.918;4.510;2024-02-14T19:39:23;13.25;;;5.47;;
15526;SDS011;7865;50.918;4.510;2024-02-14T19:44:24;11.55;;;5.43;;
15526;SDS011;7865;50.918;4.510;2024-02-14T19:49:26;14.77;;;6.43;;
15526;SDS011;7865;50.918;4.510;2024-02-14T19:54:28;16.07;;;7.93;;
15526;SDS011;7865;50.918;4.510;2024-02-14T19:59:30;16.83;;;9.38;;
15526;SDS011;7865;50.918;4.510;2024-02-14T20:04:31;20.10;;;9.43;;
15526;SDS011;7865;50.918;4.510;2024-02-14T20:09:32;20.30;;;9.77;;
15526;SDS011;7865;50.918;4.510;2024-02-14T20:14:33;22.40;;;12.00;;
15526;SDS011;7865;50.918;4.510;2024-02-14T20:19:35;19.73;;;10.47;;
15526;SDS011;7865;50.918;4.510;2024-02-14T20:24:36;21.27;;;11.73;;
15526;SDS011;7865;50.918;4.510;2024-02-14T20:29:38;19.20;;;13.15;;
15526;SDS011;7865;50.918;4.510;2024-02-14T20:34:40;17.17;;;12.40;;
15526;SDS011;7865;50.918;4.510;2024-02-14T20:39:41;18.67;;;12.57;;
15526;SDS011;7865;50.918;4.510;2024-02-14T20:44:42;13.87;;;11.33;;
15526;SDS011;7865;50.918;4.510;2024-02-14T20:49:44;18.93;;;13.57;;
15526;SDS011;7865;50.918;4.510;2024-02-14T20:54:46;18.00;;;12.60;;
15526;SDS011;7865;50.918;4.510;2024-02-14T20:59:48;21.27;;;10.73;;
15526;SDS011;7865;50.918;4.510;2024-02-14T21:04:50;19.20;;;12.30;;
15526;SDS011;7865;50.918;4.510;2024-02-14T21:09:51;18.30;;;9.77;;
15526;SDS011;7865;50.918;4.510;2024-02-14T21:14:52;12.77;;;10.07;;
15526;SDS011;7865;50.918;4.510;2024-02-14T21:19:54;18.40;;;8.67;;
15526;SDS011;7865;50.918;4.510;2024-02-14T21:24:56;13.63;;;7.13;;
15526;SDS011;7865;50.918;4.510;2024-02-14T21:29:57;21.27;;;7.47;;
15526;SDS011;7865;50.918;4.510;2024-02-14T21:34:58;14.63;;;8.67;;
15526;SDS011;7865;50.918;4.510;2024-02-14T21:39:59;16.60;;;7.82;;
15526;SDS011;7865;50.918;4.510;2024-02-14T21:45:01;15.63;;;8.35;;
15526;SDS011;7865;50.918;4.510;2024-02-14T21:50:03;15.83;;;9.27;;
15526;SDS011;7865;50.918;4.510;2024-02-14T21:55:05;15.00;;;9.30;;
15526;SDS011;7865;50.918;4.510;2024-02-14T22:00:08;16.33;;;9.80;;
15526;SDS011;7865;50.918;4.510;2024-02-14T22:05:13;16.70;;;9.63;;
15526;SDS011;7865;50.918;4.510;2024-02-14T22:10:14;20.07;;;10.67;;
15526;SDS011;7865;50.918;4.510;2024-02-14T22:15:16;20.20;;;10.57;;
15526;SDS011;7865;50.918;4.510;2024-02-14T22:20:17;19.45;;;9.82;;
15526;SDS011;7865;50.918;4.510;2024-02-14T22:25:20;22.67;;;9.95;;
15526;SDS011;7865;50.918;4.510;2024-02-14T22:30:22;19.02;;;9.50;;
15526;SDS011;7865;50.918;4.510;2024-02-14T22:35:23;17.25;;;9.35;;
15526;SDS011;7865;50.918;4.510;2024-02-14T22:40:24;19.10;;;9.90;;
15526;SDS011;7865;50.918;4.510;2024-02-14T22:45:25;19.23;;;9.15;;
15526;SDS011;7865;50.918;4.510;2024-02-14T22:50:27;18.30;;;9.23;;
15526;SDS011;7865;50.918;4.510;2024-02-14T22:55:28;20.52;;;8.60;;
15526;SDS011;7865;50.918;4.510;2024-02-14T23:00:31;20.10;;;8.80;;
15526;SDS011;7865;50.918;4.510;2024-02-14T23:05:34;19.65;;;8.00;;
15526;SDS011;7865;50.918;4.510;2024-02-14T23:10:36;15.60;;;7.43;;
15526;SDS011;7865;50.918;4.510;2024-02-14T23:15:40;13.93;;;6.70;;
15526;SDS011;7865;50.918;4.510;2024-02-14T23:20:43;14.95;;;6.28;;
15526;SDS011;7865;50.918;4.510;2024-02-14T23:25:44;17.65;;;6.47;;
15526;SDS011;7865;50.918;4.510;2024-02-14T23:30:47;15.48;;;6.18;;
15526;SDS011;7865;50.918;4.510;2024-02-14T23:35:48;11.20;;;5.47;;
15526;SDS011;7865;50.918;4.510;2024-02-14T23:40:50;15.68;;;4.97;;
15526;SDS011;7865;50.918;4.510;2024-02-14T23:45:51;16.55;;;5.55;;
15526;SDS011;7865;50.918;4.510;2024-02-14T23:50:52;10.23;;;5.85;;
15526;SDS011;7865;50.918;4.510;2024-02-14T23:55:53;16.55;;;5.70;;
